sensor_id;sensor_type;location;lat;lon;timestamp;temperature;humidity
1379;DHT22;683;48.738;9.226;2022-10-16T00:00:42;14.70;99.90
1379;DHT22;683;48.738;9.226;2022-10-16T00:03:10;14.70;99.90
1379;DHT22;683;48.738;9.226;2022-10-16T00:05:42;14.70;99.90
1379;DHT22;683;48.738;9.226;2022-10-16T00:08:11;14.70;99.90
1379;DHT22;683;48.738;9.226;2022-10-16T00:10:39;14.60;99.90
1379;DHT22;683;48.738;9.226;2022-10-16T00:13:07;14.60;99.90
1379;DHT22;683;48.738;9.226;2022-10-16T00:15:36;14.50;99.90
1379;DHT22;683;48.738;9.226;2022-10-16T00:18:06;14.50;99.90
1379;DHT22;683;48.738;9.226;2022-10-16T00:20:34;14.40;99.90
1379;DHT22;683;48.738;9.226;2022-10-16T00:23:21;14.40;99.90
1379;DHT22;683;48.738;9.226;2022-10-16T00:26:00;14.30;99.90
1379;DHT22;683;48.738;9.226;2022-10-16T00:28:28;14.30;99.90
1379;DHT22;683;48.738;9.226;2022-10-16T00:30:57;14.20;99.90
1379;DHT22;683;48.738;9.226;2022-10-16T00:33:25;14.20;99.90
1379;DHT22;683;48.738;9.226;2022-10-16T00:35:52;14.20;99.90
1379;DHT22;683;48.738;9.226;2022-10-16T00:38:19;14.20;99.90
1379;DHT22;683;48.738;9.226;2022-10-16T00:40:47;14.10;99.90
1379;DHT22;683;48.738;9.226;2022-10-16T00:43:33;14.10;99.90
1379;DHT22;683;48.738;9.226;2022-10-16T00:46:05;14.10;99.90
1379;DHT22;683;48.738;9.226;2022-10-16T00:48:33;14.00;99.90
1379;DHT22;683;48.738;9.226;2022-10-16T00:51:00;14.00;99.90
1379;DHT22;683;48.738;9.226;2022-10-16T00:53:27;14.00;99.90
1379;DHT22;683;48.738;9.226;2022-10-16T00:55:56;14.00;99.90
1379;DHT22;683;48.738;9.226;2022-10-16T00:58:23;14.00;99.90
1379;DHT22;683;48.738;9.226;2022-10-16T01:00:50;14.00;99.90
1379;DHT22;683;48.738;9.226;2022-10-16T01:03:27;13.90;99.90
1379;DHT22;683;48.738;9.226;2022-10-16T01:08:57;13.80;99.90
1379;DHT22;683;48.738;9.226;2022-10-16T01:11:32;13.80;99.90
1379;DHT22;683;48.738;9.226;2022-10-16T01:14:11;13.80;99.90
1379;DHT22;683;48.738;9.226;2022-10-16T01:16:43;13.90;99.90
1379;DHT22;683;48.738;9.226;2022-10-16T01:19:19;13.90;99.90
1379;DHT22;683;48.738;9.226;2022-10-16T01:21:47;13.90;99.90
1379;DHT22;683;48.738;9.226;2022-10-16T01:24:27;13.80;99.90
1379;DHT22;683;48.738;9.226;2022-10-16T01:27:15;13.90;99.90
1379;DHT22;683;48.738;9.226;2022-10-16T01:29:50;13.80;99.90
1379;DHT22;683;48.738;9.226;2022-10-16T01:32:24;13.90;99.90
1379;DHT22;683;48.738;9.226;2022-10-16T01:34:58;13.90;99.90
1379;DHT22;683;48.738;9.226;2022-10-16T01:37:35;13.80;99.90
1379;DHT22;683;48.738;9.226;2022-10-16T01:40:07;13.80;99.90
1379;DHT22;683;48.738;9.226;2022-10-16T01:42:41;13.80;99.90
1379;DHT22;683;48.738;9.226;2022-10-16T01:45:12;13.80;99.90
1379;DHT22;683;48.738;9.226;2022-10-16T01:47:41;13.90;99.90
1379;DHT22;683;48.738;9.226;2022-10-16T01:50:09;13.90;99.90
1379;DHT22;683;48.738;9.226;2022-10-16T01:52:40;13.90;99.90
1379;DHT22;683;48.738;9.226;2022-10-16T01:55:11;14.00;99.90
1379;DHT22;683;48.738;9.226;2022-10-16T01:57:44;14.00;99.90
1379;DHT22;683;48.738;9.226;2022-10-16T02:00:14;14.00;99.90
1379;DHT22;683;48.738;9.226;2022-10-16T02:02:45;14.00;99.90
1379;DHT22;683;48.738;9.226;2022-10-16T02:05:18;14.10;99.90
1379;DHT22;683;48.738;9.226;2022-10-16T02:07:47;14.10;99.90
1379;DHT22;683;48.738;9.226;2022-10-16T02:10:16;14.00;99.90
1379;DHT22;683;48.738;9.226;2022-10-16T02:12:49;14.10;99.90
1379;DHT22;683;48.738;9.226;2022-10-16T02:15:18;14.10;99.90
1379;DHT22;683;48.738;9.226;2022-10-16T02:17:45;14.10;99.90
1379;DHT22;683;48.738;9.226;2022-10-16T02:20:13;14.20;99.90
1379;DHT22;683;48.738;9.226;2022-10-16T02:22:43;14.20;99.90
1379;DHT22;683;48.738;9.226;2022-10-16T02:25:17;14.10;99.90
1379;DHT22;683;48.738;9.226;2022-10-16T02:27:51;14.20;99.90
1379;DHT22;683;48.738;9.226;2022-10-16T02:30:27;14.20;99.90
1379;DHT22;683;48.738;9.226;2022-10-16T02:32:57;14.20;99.90
1379;DHT22;683;48.738;9.226;2022-10-16T02:35:26;14.20;99.90
1379;DHT22;683;48.738;9.226;2022-10-16T02:37:54;14.20;99.90
1379;DHT22;683;48.738;9.226;2022-10-16T02:40:23;14.10;99.90
1379;DHT22;683;48.738;9.226;2022-10-16T02:42:53;14.20;99.90
1379;DHT22;683;48.738;9.226;2022-10-16T02:45:21;14.20;99.90
1379;DHT22;683;48.738;9.226;2022-10-16T02:47:49;14.10;99.90
1379;DHT22;683;48.738;9.226;2022-10-16T02:50:16;14.20;99.90
1379;DHT22;683;48.738;9.226;2022-10-16T02:52:44;14.10;99.90
1379;DHT22;683;48.738;9.226;2022-10-16T02:55:11;14.10;99.90
1379;DHT22;683;48.738;9.226;2022-10-16T02:57:38;14.10;99.90
1379;DHT22;683;48.738;9.226;2022-10-16T03:00:11;14.00;99.90
1379;DHT22;683;48.738;9.226;2022-10-16T03:02:39;14.00;99.90
1379;DHT22;683;48.738;9.226;2022-10-16T03:05:08;14.00;99.90
1379;DHT22;683;48.738;9.226;2022-10-16T03:07:35;14.00;99.90
1379;DHT22;683;48.738;9.226;2022-10-16T03:10:03;14.00;99.90
1379;DHT22;683;48.738;9.226;2022-10-16T03:12:30;13.90;99.90
1379;DHT22;683;48.738;9.226;2022-10-16T03:14:58;13.90;99.90
1379;DHT22;683;48.738;9.226;2022-10-16T03:17:27;13.90;99.90
1379;DHT22;683;48.738;9.226;2022-10-16T03:19:54;13.90;99.90
1379;DHT22;683;48.738;9.226;2022-10-16T03:22:21;13.80;99.90
1379;DHT22;683;48.738;9.226;2022-10-16T03:24:49;13.90;99.90
1379;DHT22;683;48.738;9.226;2022-10-16T03:27:16;13.90;99.90
1379;DHT22;683;48.738;9.226;2022-10-16T03:29:43;13.80;99.90
1379;DHT22;683;48.738;9.226;2022-10-16T03:32:10;13.80;99.90
1379;DHT22;683;48.738;9.226;2022-10-16T03:34:39;13.80;99.90
1379;DHT22;683;48.738;9.226;2022-10-16T03:37:07;13.70;99.90
1379;DHT22;683;48.738;9.226;2022-10-16T03:39:34;13.70;99.90
1379;DHT22;683;48.738;9.226;2022-10-16T03:42:01;13.70;99.90
1379;DHT22;683;48.738;9.226;2022-10-16T03:44:29;13.70;99.90
1379;DHT22;683;48.738;9.226;2022-10-16T03:46:56;13.70;99.90
1379;DHT22;683;48.738;9.226;2022-10-16T03:49:23;13.70;99.90
1379;DHT22;683;48.738;9.226;2022-10-16T03:51:52;13.70;99.90
1379;DHT22;683;48.738;9.226;2022-10-16T03:54:19;13.60;99.90
1379;DHT22;683;48.738;9.226;2022-10-16T03:56:48;13.60;99.90
1379;DHT22;683;48.738;9.226;2022-10-16T03:59:15;13.60;99.90
1379;DHT22;683;48.738;9.226;2022-10-16T04:01:43;13.60;99.90
1379;DHT22;683;48.738;9.226;2022-10-16T04:04:10;13.60;99.90
1379;DHT22;683;48.738;9.226;2022-10-16T04:06:37;13.60;99.90
1379;DHT22;683;48.738;9.226;2022-10-16T04:09:06;13.60;99.90
1379;DHT22;683;48.738;9.226;2022-10-16T04:11:33;13.60;99.90
1379;DHT22;683;48.738;9.226;2022-10-16T04:14:01;13.60;99.90
1379;DHT22;683;48.738;9.226;2022-10-16T04:16:28;13.70;99.90
1379;DHT22;683;48.738;9.226;2022-10-16T04:18:55;13.70;99.90
1379;DHT22;683;48.738;9.226;2022-10-16T04:21:23;13.70;99.90
1379;DHT22;683;48.738;9.226;2022-10-16T04:23:50;13.70;99.90
1379;DHT22;683;48.738;9.226;2022-10-16T04:26:19;13.70;99.90
1379;DHT22;683;48.738;9.226;2022-10-16T04:28:46;13.70;99.90
1379;DHT22;683;48.738;9.226;2022-10-16T04:31:13;13.70;99.90
1379;DHT22;683;48.738;9.226;2022-10-16T04:33:42;13.70;99.90
1379;DHT22;683;48.738;9.226;2022-10-16T04:36:10;13.70;99.90
1379;DHT22;683;48.738;9.226;2022-10-16T04:38:38;13.70;99.90
1379;DHT22;683;48.738;9.226;2022-10-16T04:41:06;13.70;99.90
1379;DHT22;683;48.738;9.226;2022-10-16T04:43:35;13.80;99.90
1379;DHT22;683;48.738;9.226;2022-10-16T04:46:02;13.80;99.90
1379;DHT22;683;48.738;9.226;2022-10-16T04:48:30;13.80;99.90
1379;DHT22;683;48.738;9.226;2022-10-16T04:50:58;13.80;99.90
1379;DHT22;683;48.738;9.226;2022-10-16T04:53:25;13.80;99.90
1379;DHT22;683;48.738;9.226;2022-10-16T04:55:52;13.80;99.90
1379;DHT22;683;48.738;9.226;2022-10-16T04:58:20;13.80;99.90
1379;DHT22;683;48.738;9.226;2022-10-16T05:00:49;13.80;99.90
1379;DHT22;683;48.738;9.226;2022-10-16T05:03:16;13.80;99.90
1379;DHT22;683;48.738;9.226;2022-10-16T05:05:44;13.80;99.90
1379;DHT22;683;48.738;9.226;2022-10-16T05:08:12;13.80;99.90
1379;DHT22;683;48.738;9.226;2022-10-16T05:10:41;13.80;99.90
1379;DHT22;683;48.738;9.226;2022-10-16T05:13:08;13.80;99.90
1379;DHT22;683;48.738;9.226;2022-10-16T05:15:35;13.80;99.90
1379;DHT22;683;48.738;9.226;2022-10-16T05:18:04;13.70;99.90
1379;DHT22;683;48.738;9.226;2022-10-16T05:20:32;13.70;99.90
1379;DHT22;683;48.738;9.226;2022-10-16T05:22:59;13.70;99.90
1379;DHT22;683;48.738;9.226;2022-10-16T05:25:26;13.70;99.90
1379;DHT22;683;48.738;9.226;2022-10-16T05:27:54;13.60;99.90
1379;DHT22;683;48.738;9.226;2022-10-16T05:30:21;13.60;99.90
1379;DHT22;683;48.738;9.226;2022-10-16T05:32:49;13.60;99.90
1379;DHT22;683;48.738;9.226;2022-10-16T05:35:18;13.50;99.90
1379;DHT22;683;48.738;9.226;2022-10-16T05:37:47;13.50;99.90
1379;DHT22;683;48.738;9.226;2022-10-16T05:40:15;13.50;99.90
1379;DHT22;683;48.738;9.226;2022-10-16T05:42:42;13.50;99.90
1379;DHT22;683;48.738;9.226;2022-10-16T05:45:11;13.50;99.90
1379;DHT22;683;48.738;9.226;2022-10-16T05:47:39;13.40;99.90
1379;DHT22;683;48.738;9.226;2022-10-16T05:50:07;13.40;99.90
1379;DHT22;683;48.738;9.226;2022-10-16T05:52:35;13.40;99.90
1379;DHT22;683;48.738;9.226;2022-10-16T05:55:03;13.40;99.90
1379;DHT22;683;48.738;9.226;2022-10-16T05:57:31;13.40;99.90
1379;DHT22;683;48.738;9.226;2022-10-16T05:59:58;13.40;99.90
1379;DHT22;683;48.738;9.226;2022-10-16T06:02:25;13.40;99.90
1379;DHT22;683;48.738;9.226;2022-10-16T06:04:53;13.50;99.90
1379;DHT22;683;48.738;9.226;2022-10-16T06:07:20;13.60;99.90
1379;DHT22;683;48.738;9.226;2022-10-16T06:09:50;13.60;99.90
1379;DHT22;683;48.738;9.226;2022-10-16T06:12:17;13.60;99.90
1379;DHT22;683;48.738;9.226;2022-10-16T06:14:45;13.70;99.90
1379;DHT22;683;48.738;9.226;2022-10-16T06:17:13;13.70;99.90
1379;DHT22;683;48.738;9.226;2022-10-16T06:19:40;13.70;99.90
1379;DHT22;683;48.738;9.226;2022-10-16T06:22:08;13.80;99.90
1379;DHT22;683;48.738;9.226;2022-10-16T06:24:35;13.80;99.90
1379;DHT22;683;48.738;9.226;2022-10-16T06:27:05;13.90;99.90
1379;DHT22;683;48.738;9.226;2022-10-16T06:29:32;13.90;99.90
1379;DHT22;683;48.738;9.226;2022-10-16T06:31:59;13.90;99.90
1379;DHT22;683;48.738;9.226;2022-10-16T06:34:27;14.00;99.90
1379;DHT22;683;48.738;9.226;2022-10-16T06:36:54;14.00;99.90
1379;DHT22;683;48.738;9.226;2022-10-16T06:39:22;14.10;99.90
1379;DHT22;683;48.738;9.226;2022-10-16T06:41:49;14.20;99.90
1379;DHT22;683;48.738;9.226;2022-10-16T06:44:21;14.30;99.90
1379;DHT22;683;48.738;9.226;2022-10-16T06:46:48;14.40;99.90
1379;DHT22;683;48.738;9.226;2022-10-16T06:49:16;14.60;99.90
1379;DHT22;683;48.738;9.226;2022-10-16T06:51:48;14.70;99.90
1379;DHT22;683;48.738;9.226;2022-10-16T06:54:15;14.80;99.90
1379;DHT22;683;48.738;9.226;2022-10-16T06:56:43;14.90;99.90
1379;DHT22;683;48.738;9.226;2022-10-16T06:59:11;15.10;99.90
1379;DHT22;683;48.738;9.226;2022-10-16T07:01:40;15.20;99.90
1379;DHT22;683;48.738;9.226;2022-10-16T07:04:07;15.20;99.90
1379;DHT22;683;48.738;9.226;2022-10-16T07:06:35;15.30;99.90
1379;DHT22;683;48.738;9.226;2022-10-16T07:09:04;15.30;99.90
1379;DHT22;683;48.738;9.226;2022-10-16T07:11:33;15.40;99.90
1379;DHT22;683;48.738;9.226;2022-10-16T07:14:00;15.50;99.90
1379;DHT22;683;48.738;9.226;2022-10-16T07:16:29;15.60;99.90
1379;DHT22;683;48.738;9.226;2022-10-16T07:19:00;15.70;99.90
1379;DHT22;683;48.738;9.226;2022-10-16T07:21:28;15.70;99.90
1379;DHT22;683;48.738;9.226;2022-10-16T07:23:58;15.70;99.90
1379;DHT22;683;48.738;9.226;2022-10-16T07:26:28;15.70;99.90
1379;DHT22;683;48.738;9.226;2022-10-16T07:28:57;15.80;99.90
1379;DHT22;683;48.738;9.226;2022-10-16T07:31:24;15.80;99.90
1379;DHT22;683;48.738;9.226;2022-10-16T07:33:52;15.80;99.90
1379;DHT22;683;48.738;9.226;2022-10-16T07:36:21;15.80;99.90
1379;DHT22;683;48.738;9.226;2022-10-16T07:38:48;15.90;99.90
1379;DHT22;683;48.738;9.226;2022-10-16T07:41:18;15.90;99.90
1379;DHT22;683;48.738;9.226;2022-10-16T07:43:46;15.90;99.90
1379;DHT22;683;48.738;9.226;2022-10-16T07:46:14;16.00;99.90
1379;DHT22;683;48.738;9.226;2022-10-16T07:48:42;16.00;99.90
1379;DHT22;683;48.738;9.226;2022-10-16T07:51:12;16.10;99.90
1379;DHT22;683;48.738;9.226;2022-10-16T07:53:41;16.10;99.90
1379;DHT22;683;48.738;9.226;2022-10-16T07:56:08;16.20;99.90
1379;DHT22;683;48.738;9.226;2022-10-16T07:58:36;16.20;99.90
1379;DHT22;683;48.738;9.226;2022-10-16T08:01:05;16.30;99.90
1379;DHT22;683;48.738;9.226;2022-10-16T08:03:33;16.30;99.90
1379;DHT22;683;48.738;9.226;2022-10-16T08:06:01;16.50;99.90
1379;DHT22;683;48.738;9.226;2022-10-16T08:08:29;16.50;99.90
1379;DHT22;683;48.738;9.226;2022-10-16T08:10:58;16.50;99.90
1379;DHT22;683;48.738;9.226;2022-10-16T08:13:25;16.70;99.90
1379;DHT22;683;48.738;9.226;2022-10-16T08:15:54;16.80;99.90
1379;DHT22;683;48.738;9.226;2022-10-16T08:18:22;17.00;99.90
1379;DHT22;683;48.738;9.226;2022-10-16T08:20:55;17.10;99.90
1379;DHT22;683;48.738;9.226;2022-10-16T08:23:22;17.20;99.90
1379;DHT22;683;48.738;9.226;2022-10-16T08:25:51;17.40;99.90
1379;DHT22;683;48.738;9.226;2022-10-16T08:28:21;17.60;99.90
1379;DHT22;683;48.738;9.226;2022-10-16T08:30:49;17.90;99.90
1379;DHT22;683;48.738;9.226;2022-10-16T08:33:16;18.00;99.90
1379;DHT22;683;48.738;9.226;2022-10-16T08:35:51;18.10;99.90
1379;DHT22;683;48.738;9.226;2022-10-16T08:38:20;18.10;99.90
1379;DHT22;683;48.738;9.226;2022-10-16T08:40:47;18.30;99.90
1379;DHT22;683;48.738;9.226;2022-10-16T08:43:32;18.50;99.90
1379;DHT22;683;48.738;9.226;2022-10-16T08:46:15;18.40;99.90
1379;DHT22;683;48.738;9.226;2022-10-16T08:48:47;18.30;99.90
1379;DHT22;683;48.738;9.226;2022-10-16T08:51:19;18.30;99.90
1379;DHT22;683;48.738;9.226;2022-10-16T08:53:51;18.20;99.90
1379;DHT22;683;48.738;9.226;2022-10-16T08:56:20;18.20;99.90
1379;DHT22;683;48.738;9.226;2022-10-16T08:58:49;18.10;99.90
1379;DHT22;683;48.738;9.226;2022-10-16T09:01:19;18.00;99.90
1379;DHT22;683;48.738;9.226;2022-10-16T09:04:07;18.10;99.90
1379;DHT22;683;48.738;9.226;2022-10-16T09:06:45;18.20;99.90
1379;DHT22;683;48.738;9.226;2022-10-16T09:09:40;18.40;99.90
1379;DHT22;683;48.738;9.226;2022-10-16T09:12:15;18.70;99.90
1379;DHT22;683;48.738;9.226;2022-10-16T09:14:58;19.00;99.90
1379;DHT22;683;48.738;9.226;2022-10-16T09:17:40;19.30;99.90
1379;DHT22;683;48.738;9.226;2022-10-16T09:20:19;19.50;99.90
1379;DHT22;683;48.738;9.226;2022-10-16T09:22:53;19.90;99.90
1379;DHT22;683;48.738;9.226;2022-10-16T09:25:22;20.00;99.90
1379;DHT22;683;48.738;9.226;2022-10-16T09:27:52;20.10;99.90
1379;DHT22;683;48.738;9.226;2022-10-16T09:30:22;20.20;99.90
1379;DHT22;683;48.738;9.226;2022-10-16T09:32:51;20.30;99.90
1379;DHT22;683;48.738;9.226;2022-10-16T09:35:21;20.30;99.90
1379;DHT22;683;48.738;9.226;2022-10-16T09:37:51;20.10;99.90
1379;DHT22;683;48.738;9.226;2022-10-16T09:40:26;20.00;99.90
1379;DHT22;683;48.738;9.226;2022-10-16T09:43:01;19.90;99.90
1379;DHT22;683;48.738;9.226;2022-10-16T09:45:31;20.10;99.90
1379;DHT22;683;48.738;9.226;2022-10-16T09:48:00;20.30;99.90
1379;DHT22;683;48.738;9.226;2022-10-16T09:50:28;20.50;99.90
1379;DHT22;683;48.738;9.226;2022-10-16T09:53:08;20.80;99.90
1379;DHT22;683;48.738;9.226;2022-10-16T09:55:48;21.00;99.90
1379;DHT22;683;48.738;9.226;2022-10-16T09:58:16;21.00;99.90
1379;DHT22;683;48.738;9.226;2022-10-16T10:00:51;21.20;99.90
1379;DHT22;683;48.738;9.226;2022-10-16T10:03:34;21.30;99.90
1379;DHT22;683;48.738;9.226;2022-10-16T10:06:07;21.60;99.90
1379;DHT22;683;48.738;9.226;2022-10-16T10:08:56;21.80;99.90
1379;DHT22;683;48.738;9.226;2022-10-16T10:11:46;21.70;99.90
1379;DHT22;683;48.738;9.226;2022-10-16T10:14:20;21.80;99.90
1379;DHT22;683;48.738;9.226;2022-10-16T10:16:51;22.10;99.90
1379;DHT22;683;48.738;9.226;2022-10-16T10:19:20;22.30;99.90
1379;DHT22;683;48.738;9.226;2022-10-16T10:21:48;22.40;99.80
1379;DHT22;683;48.738;9.226;2022-10-16T10:24:18;22.60;99.70
1379;DHT22;683;48.738;9.226;2022-10-16T10:26:51;22.50;98.30
1379;DHT22;683;48.738;9.226;2022-10-16T10:29:35;22.60;98.30
1379;DHT22;683;48.738;9.226;2022-10-16T10:32:15;22.60;97.30
1379;DHT22;683;48.738;9.226;2022-10-16T10:35:02;22.60;97.20
1379;DHT22;683;48.738;9.226;2022-10-16T10:37:41;22.40;96.10
1379;DHT22;683;48.738;9.226;2022-10-16T10:40:18;22.50;96.90
1379;DHT22;683;48.738;9.226;2022-10-16T10:42:53;22.60;95.50
1379;DHT22;683;48.738;9.226;2022-10-16T10:45:26;22.80;95.40
1379;DHT22;683;48.738;9.226;2022-10-16T10:48:06;23.00;94.60
1379;DHT22;683;48.738;9.226;2022-10-16T10:50:41;23.10;95.00
1379;DHT22;683;48.738;9.226;2022-10-16T10:53:20;23.10;94.00
1379;DHT22;683;48.738;9.226;2022-10-16T10:55:54;22.80;94.60
1379;DHT22;683;48.738;9.226;2022-10-16T11:01:28;22.30;94.50
1379;DHT22;683;48.738;9.226;2022-10-16T11:04:15;22.20;94.70
1379;DHT22;683;48.738;9.226;2022-10-16T11:06:51;22.20;94.50
1379;DHT22;683;48.738;9.226;2022-10-16T11:09:23;22.40;94.20
1379;DHT22;683;48.738;9.226;2022-10-16T11:11:56;22.60;93.70
1379;DHT22;683;48.738;9.226;2022-10-16T11:14:29;22.50;93.20
1379;DHT22;683;48.738;9.226;2022-10-16T11:17:00;22.40;93.00
1379;DHT22;683;48.738;9.226;2022-10-16T11:19:37;22.50;93.00
1379;DHT22;683;48.738;9.226;2022-10-16T11:22:13;22.70;92.80
1379;DHT22;683;48.738;9.226;2022-10-16T11:24:48;22.90;91.90
1379;DHT22;683;48.738;9.226;2022-10-16T11:27:19;22.90;92.00
1379;DHT22;683;48.738;9.226;2022-10-16T11:29:51;23.00;92.70
1379;DHT22;683;48.738;9.226;2022-10-16T11:32:24;22.90;91.10
1379;DHT22;683;48.738;9.226;2022-10-16T11:34:57;23.10;91.80
1379;DHT22;683;48.738;9.226;2022-10-16T11:37:30;23.30;91.80
1379;DHT22;683;48.738;9.226;2022-10-16T11:40:16;23.10;91.30
1379;DHT22;683;48.738;9.226;2022-10-16T11:42:50;23.20;91.80
1379;DHT22;683;48.738;9.226;2022-10-16T11:45:26;23.50;91.40
1379;DHT22;683;48.738;9.226;2022-10-16T11:48:02;23.70;91.10
1379;DHT22;683;48.738;9.226;2022-10-16T11:50:35;23.40;90.70
1379;DHT22;683;48.738;9.226;2022-10-16T11:53:14;23.20;90.60
1379;DHT22;683;48.738;9.226;2022-10-16T11:55:44;23.00;90.50
1379;DHT22;683;48.738;9.226;2022-10-16T11:58:18;23.30;90.80
1379;DHT22;683;48.738;9.226;2022-10-16T12:00:55;23.30;90.50
1379;DHT22;683;48.738;9.226;2022-10-16T12:03:28;23.60;90.10
1379;DHT22;683;48.738;9.226;2022-10-16T12:06:11;23.90;89.20
1379;DHT22;683;48.738;9.226;2022-10-16T12:08:41;24.10;88.50
1379;DHT22;683;48.738;9.226;2022-10-16T12:11:23;24.20;88.50
1379;DHT22;683;48.738;9.226;2022-10-16T12:13:51;24.40;87.70
1379;DHT22;683;48.738;9.226;2022-10-16T12:16:23;24.80;86.30
1379;DHT22;683;48.738;9.226;2022-10-16T12:19:09;25.00;86.40
1379;DHT22;683;48.738;9.226;2022-10-16T12:21:38;25.20;85.00
1379;DHT22;683;48.738;9.226;2022-10-16T12:24:06;24.90;83.90
1379;DHT22;683;48.738;9.226;2022-10-16T12:26:47;25.10;85.10
1379;DHT22;683;48.738;9.226;2022-10-16T12:29:29;25.70;82.70
1379;DHT22;683;48.738;9.226;2022-10-16T12:31:57;26.00;82.00
1379;DHT22;683;48.738;9.226;2022-10-16T12:34:28;26.30;81.90
1379;DHT22;683;48.738;9.226;2022-10-16T12:37:08;26.90;79.90
1379;DHT22;683;48.738;9.226;2022-10-16T12:39:37;27.50;74.30
1379;DHT22;683;48.738;9.226;2022-10-16T12:42:06;27.60;74.30
1379;DHT22;683;48.738;9.226;2022-10-16T12:44:46;28.00;74.10
1379;DHT22;683;48.738;9.226;2022-10-16T12:47:21;28.50;71.70
1379;DHT22;683;48.738;9.226;2022-10-16T12:49:50;29.60;69.10
1379;DHT22;683;48.738;9.226;2022-10-16T12:52:26;30.20;65.80
1379;DHT22;683;48.738;9.226;2022-10-16T12:54:56;31.00;63.10
1379;DHT22;683;48.738;9.226;2022-10-16T12:57:40;30.70;63.90
1379;DHT22;683;48.738;9.226;2022-10-16T13:00:20;29.70;64.80
1379;DHT22;683;48.738;9.226;2022-10-16T13:06:16;26.10;70.60
1379;DHT22;683;48.738;9.226;2022-10-16T13:09:01;25.60;72.30
1379;DHT22;683;48.738;9.226;2022-10-16T13:11:41;25.40;75.30
1379;DHT22;683;48.738;9.226;2022-10-16T13:14:28;25.40;75.90
1379;DHT22;683;48.738;9.226;2022-10-16T13:17:06;25.50;77.60
1379;DHT22;683;48.738;9.226;2022-10-16T13:19:41;25.90;75.70
1379;DHT22;683;48.738;9.226;2022-10-16T13:22:16;26.40;75.00
1379;DHT22;683;48.738;9.226;2022-10-16T13:24:55;26.70;72.40
1379;DHT22;683;48.738;9.226;2022-10-16T13:27:32;26.50;71.80
1379;DHT22;683;48.738;9.226;2022-10-16T13:30:11;26.60;70.70
1379;DHT22;683;48.738;9.226;2022-10-16T13:32:39;26.30;70.80
1379;DHT22;683;48.738;9.226;2022-10-16T13:35:20;26.10;74.60
1379;DHT22;683;48.738;9.226;2022-10-16T13:37:48;26.20;73.40
1379;DHT22;683;48.738;9.226;2022-10-16T13:40:21;26.10;76.70
1379;DHT22;683;48.738;9.226;2022-10-16T13:42:49;26.10;76.90
1379;DHT22;683;48.738;9.226;2022-10-16T13:45:19;26.50;75.40
1379;DHT22;683;48.738;9.226;2022-10-16T13:47:46;26.80;75.60
1379;DHT22;683;48.738;9.226;2022-10-16T13:50:16;26.90;75.60
1379;DHT22;683;48.738;9.226;2022-10-16T13:52:44;27.00;74.40
1379;DHT22;683;48.738;9.226;2022-10-16T13:55:12;27.20;74.70
1379;DHT22;683;48.738;9.226;2022-10-16T13:57:42;27.30;75.30
1379;DHT22;683;48.738;9.226;2022-10-16T14:00:20;27.70;74.50
1379;DHT22;683;48.738;9.226;2022-10-16T14:02:52;28.60;71.50
1379;DHT22;683;48.738;9.226;2022-10-16T14:05:21;28.10;70.40
1379;DHT22;683;48.738;9.226;2022-10-16T14:07:50;27.50;71.20
1379;DHT22;683;48.738;9.226;2022-10-16T14:10:22;26.70;73.20
1379;DHT22;683;48.738;9.226;2022-10-16T14:12:56;26.00;76.20
1379;DHT22;683;48.738;9.226;2022-10-16T14:15:25;25.30;78.30
1379;DHT22;683;48.738;9.226;2022-10-16T14:17:53;24.90;80.60
1379;DHT22;683;48.738;9.226;2022-10-16T14:20:24;24.50;81.50
1379;DHT22;683;48.738;9.226;2022-10-16T14:22:59;24.30;82.20
1379;DHT22;683;48.738;9.226;2022-10-16T14:25:28;24.10;83.10
1379;DHT22;683;48.738;9.226;2022-10-16T14:28:03;23.90;83.90
1379;DHT22;683;48.738;9.226;2022-10-16T14:30:33;23.80;85.20
1379;DHT22;683;48.738;9.226;2022-10-16T14:33:02;23.90;85.40
1379;DHT22;683;48.738;9.226;2022-10-16T14:35:31;24.10;85.90
1379;DHT22;683;48.738;9.226;2022-10-16T14:38:01;24.10;87.30
1379;DHT22;683;48.738;9.226;2022-10-16T14:40:30;24.10;84.00
1379;DHT22;683;48.738;9.226;2022-10-16T14:42:58;24.10;84.20
1379;DHT22;683;48.738;9.226;2022-10-16T14:45:30;24.10;86.90
1379;DHT22;683;48.738;9.226;2022-10-16T14:48:00;23.90;88.10
1379;DHT22;683;48.738;9.226;2022-10-16T14:50:28;23.90;88.10
1379;DHT22;683;48.738;9.226;2022-10-16T14:52:56;23.80;86.80
1379;DHT22;683;48.738;9.226;2022-10-16T14:55:23;23.80;90.80
1379;DHT22;683;48.738;9.226;2022-10-16T14:57:51;23.80;87.50
1379;DHT22;683;48.738;9.226;2022-10-16T15:00:21;23.70;88.00
1379;DHT22;683;48.738;9.226;2022-10-16T15:02:51;23.70;89.00
1379;DHT22;683;48.738;9.226;2022-10-16T15:05:20;23.70;90.20
1379;DHT22;683;48.738;9.226;2022-10-16T15:07:48;23.70;89.70
1379;DHT22;683;48.738;9.226;2022-10-16T15:10:16;23.80;90.00
1379;DHT22;683;48.738;9.226;2022-10-16T15:12:44;23.70;89.90
1379;DHT22;683;48.738;9.226;2022-10-16T15:15:30;23.50;88.40
1379;DHT22;683;48.738;9.226;2022-10-16T15:18:00;23.50;89.30
1379;DHT22;683;48.738;9.226;2022-10-16T15:20:29;23.40;90.40
1379;DHT22;683;48.738;9.226;2022-10-16T15:22:59;23.30;89.10
1379;DHT22;683;48.738;9.226;2022-10-16T15:25:34;23.20;90.00
1379;DHT22;683;48.738;9.226;2022-10-16T15:28:03;23.10;88.50
1379;DHT22;683;48.738;9.226;2022-10-16T15:30:31;23.00;90.10
1379;DHT22;683;48.738;9.226;2022-10-16T15:33:00;22.90;89.10
1379;DHT22;683;48.738;9.226;2022-10-16T15:35:28;22.80;90.50
1379;DHT22;683;48.738;9.226;2022-10-16T15:37:55;22.70;89.90
1379;DHT22;683;48.738;9.226;2022-10-16T15:40:23;22.60;90.20
1379;DHT22;683;48.738;9.226;2022-10-16T15:42:50;22.50;90.30
1379;DHT22;683;48.738;9.226;2022-10-16T15:45:18;22.40;91.40
1379;DHT22;683;48.738;9.226;2022-10-16T15:47:46;22.20;93.00
1379;DHT22;683;48.738;9.226;2022-10-16T15:50:15;22.00;93.70
1379;DHT22;683;48.738;9.226;2022-10-16T15:52:43;21.80;94.30
1379;DHT22;683;48.738;9.226;2022-10-16T15:55:12;21.60;93.70
1379;DHT22;683;48.738;9.226;2022-10-16T15:57:40;21.50;94.90
1379;DHT22;683;48.738;9.226;2022-10-16T16:00:11;21.40;94.50
1379;DHT22;683;48.738;9.226;2022-10-16T16:02:39;21.30;94.10
1379;DHT22;683;48.738;9.226;2022-10-16T16:05:08;21.10;93.80
1379;DHT22;683;48.738;9.226;2022-10-16T16:07:38;21.00;94.20
1379;DHT22;683;48.738;9.226;2022-10-16T16:10:07;20.90;96.10
1379;DHT22;683;48.738;9.226;2022-10-16T16:12:35;20.70;95.20
1379;DHT22;683;48.738;9.226;2022-10-16T16:15:03;20.50;95.00
1379;DHT22;683;48.738;9.226;2022-10-16T16:17:31;20.40;95.30
1379;DHT22;683;48.738;9.226;2022-10-16T16:19:59;20.20;95.40
1379;DHT22;683;48.738;9.226;2022-10-16T16:22:27;20.10;95.70
1379;DHT22;683;48.738;9.226;2022-10-16T16:24:55;20.00;95.90
1379;DHT22;683;48.738;9.226;2022-10-16T16:27:23;19.80;96.00
1379;DHT22;683;48.738;9.226;2022-10-16T16:29:51;19.60;96.40
1379;DHT22;683;48.738;9.226;2022-10-16T16:32:21;19.40;96.40
1379;DHT22;683;48.738;9.226;2022-10-16T16:34:48;19.30;96.80
1379;DHT22;683;48.738;9.226;2022-10-16T16:37:16;19.10;97.10
1379;DHT22;683;48.738;9.226;2022-10-16T16:39:43;19.00;97.50
1379;DHT22;683;48.738;9.226;2022-10-16T16:42:12;18.90;97.90
1379;DHT22;683;48.738;9.226;2022-10-16T16:44:39;18.80;98.20
1379;DHT22;683;48.738;9.226;2022-10-16T16:47:09;18.70;99.00
1379;DHT22;683;48.738;9.226;2022-10-16T16:49:36;18.70;99.10